In Rescue
 
Open Full Screen Window  High Contrast Mode
Wind Gusting 19 knots
16
April 02, 2020 10:22 PM CDT
Present Weather: Light Snow
Weather Information
Wind Direction
  350 °
Wind Speed
  16 kt (18 mph)
Wind Gust
  19 kt (22 mph)
Altimeter
30.02 in
Visibility
5 SM
Temperature
-05° C
23° F
Dewpoint
-06° C
21° F
Humidity
93%
1hr Rain Fall
00.00 in.
24hr Rain Fall
00.00 in.
Sky Condition
Overcast @ 1,400 ft
MVFR

METAR KBBB 030322Z AUTO 35016G19KT 5SM -SN OVC014 M05/M06 A3002 RMK AO2

FAA Disclaimer: The data displayed is for advisory purposes only and is not to be used for flight planning or operations.